Time;durP1;ratioP1;P1;durP2;ratioP2;P2;SDS_P1;SDS_P2;PMS_P1;PMS_P2;Temp;Humidity;BMP_temperature;BMP_pressure;BME280_temperature;BME280_humidity;BME280_pressure;Samples;Min_cycle;Max_cycle;Signal;HPM_P1;HPM_P2
2022/11/12 00:01:25;;;;;;;5.30;4.40;;;;;;;;;;5095943;28;20543;-64
2022/11/12 00:03:52;;;;;;;4.67;4.00;;;;;;;;;;5095818;28;20441;-64
2022/11/12 00:06:19;;;;;;;5.60;4.82;;;;;;;;;;5095774;28;20445;-64
2022/11/12 00:08:46;;;;;;;6.90;4.60;;;;;;;;;;5095626;28;20210;-64
2022/11/12 00:11:13;;;;;;;4.65;4.28;;;;;;;;;;5095824;28;20861;-65
2022/11/12 00:13:40;;;;;;;4.85;4.15;;;;;;;;;;5095781;28;20200;-64
2022/11/12 00:16:07;;;;;;;10.77;4.55;;;;;;;;;;5095744;28;20271;-64
2022/11/12 00:18:35;;;;;;;5.57;5.00;;;;;;;;;;5095532;28;20211;-64
2022/11/12 00:21:02;;;;;;;7.78;4.95;;;;;;;;;;5095477;28;20186;-64
2022/11/12 00:23:29;;;;;;;7.22;5.10;;;;;;;;;;5095416;28;20221;-64
2022/11/12 00:25:59;;;;;;;5.97;4.53;;;;;;;;;;5095626;28;20366;-65
2022/11/12 00:28:26;;;;;;;7.10;4.75;;;;;;;;;;5095664;28;20286;-64
2022/11/12 00:30:53;;;;;;;4.85;4.13;;;;;;;;;;5095539;28;20259;-64
2022/11/12 00:33:20;;;;;;;9.02;4.03;;;;;;;;;;5095312;28;20624;-65
2022/11/12 00:35:48;;;;;;;6.68;4.50;;;;;;;;;;5095211;28;20535;-64
2022/11/12 00:38:15;;;;;;;4.35;3.72;;;;;;;;;;5095324;28;20211;-64
2022/11/12 00:40:42;;;;;;;4.60;4.10;;;;;;;;;;5095355;28;20190;-64
2022/11/12 00:43:09;;;;;;;7.85;4.30;;;;;;;;;;5095272;28;20286;-64
2022/11/12 00:45:38;;;;;;;8.63;4.10;;;;;;;;;;5095001;28;20285;-64
2022/11/12 00:48:05;;;;;;;7.53;4.80;;;;;;;;;;5094809;28;20318;-64
2022/11/12 00:50:32;;;;;;;4.45;3.80;;;;;;;;;;5094863;28;20540;-64
2022/11/12 00:53:02;;;;;;;4.17;3.60;;;;;;;;;;5095072;28;20607;-64
2022/11/12 00:55:29;;;;;;;4.73;3.43;;;;;;;;;;5094854;28;20505;-64
2022/11/12 00:57:58;;;;;;;4.60;3.70;;;;;;;;;;5094827;28;20544;-64
2022/11/12 01:00:25;;;;;;;3.83;3.53;;;;;;;;;;5094703;28;20216;-64
2022/11/12 01:02:52;;;;;;;3.80;3.30;;;;;;;;;;5094853;28;20191;-64
2022/11/12 01:05:20;;;;;;;5.97;3.60;;;;;;;;;;5094962;28;20246;-64
2022/11/12 01:07:46;;;;;;;5.50;3.55;;;;;;;;;;5094891;28;20447;-64
2022/11/12 01:10:15;;;;;;;4.70;3.38;;;;;;;;;;5094727;28;20195;-64
2022/11/12 01:12:42;;;;;;;6.95;4.28;;;;;;;;;;5094574;28;20546;-64
2022/11/12 01:15:09;;;;;;;6.40;3.90;;;;;;;;;;5094476;28;20198;-64
2022/11/12 01:17:36;;;;;;;4.40;4.00;;;;;;;;;;5094316;28;20275;-64
2022/11/12 01:20:03;;;;;;;5.57;4.25;;;;;;;;;;5094157;28;20713;-64
2022/11/12 01:22:32;;;;;;;8.73;3.65;;;;;;;;;;5094356;28;20191;-64
2022/11/12 01:24:58;;;;;;;4.10;3.78;;;;;;;;;;5094421;28;20234;-64
2022/11/12 01:27:27;;;;;;;4.78;4.28;;;;;;;;;;5094097;28;20229;-64
2022/11/12 01:29:53;;;;;;;3.93;3.53;;;;;;;;;;5094036;28;20225;-64
2022/11/12 01:32:20;;;;;;;4.00;3.60;;;;;;;;;;5094278;28;20544;-64
2022/11/12 01:34:47;;;;;;;4.57;3.67;;;;;;;;;;5094215;28;20540;-64
2022/11/12 01:37:14;;;;;;;4.88;3.63;;;;;;;;;;5093910;28;20884;-64
2022/11/12 01:39:41;;;;;;;3.63;3.35;;;;;;;;;;5093947;28;20221;-64
2022/11/12 01:42:08;;;;;;;3.70;2.78;;;;;;;;;;5093858;28;20290;-64
2022/11/12 01:44:39;;;;;;;5.60;3.92;;;;;;;;;;5093780;28;20203;-64
2022/11/12 01:47:10;;;;;;;4.00;3.30;;;;;;;;;;5093842;28;20229;-64
2022/11/12 01:49:41;;;;;;;4.40;4.00;;;;;;;;;;5093918;28;20481;-64
2022/11/12 01:52:13;;;;;;;4.53;3.63;;;;;;;;;;5093667;28;20661;-64
2022/11/12 01:54:48;;;;;;;5.07;3.40;;;;;;;;;;5093676;28;20499;-64
2022/11/12 01:57:16;;;;;;;6.47;3.60;;;;;;;;;;5093866;28;20458;-64
2022/11/12 01:59:46;;;;;;;3.07;2.77;;;;;;;;;;5093442;28;21378;-64
2022/11/12 02:02:13;;;;;;;4.03;3.17;;;;;;;;;;5093613;28;20442;-64
2022/11/12 02:04:40;;;;;;;3.92;3.63;;;;;;;;;;5093542;28;20452;-64
2022/11/12 02:07:08;;;;;;;3.57;2.83;;;;;;;;;;5093358;28;20732;-64
2022/11/12 02:09:35;;;;;;;3.40;3.10;;;;;;;;;;5093179;28;20548;-64
2022/11/12 02:12:02;;;;;;;3.47;3.27;;;;;;;;;;5093573;28;20449;-64
2022/11/12 02:14:28;;;;;;;3.47;3.17;;;;;;;;;;5093602;28;20541;-64
2022/11/12 02:16:57;;;;;;;4.07;3.53;;;;;;;;;;5093369;28;20480;-64
2022/11/12 02:19:25;;;;;;;6.30;3.83;;;;;;;;;;5093200;28;20488;-64
2022/11/12 02:21:53;;;;;;;3.30;3.00;;;;;;;;;;5093141;28;20453;-65
2022/11/12 02:24:31;;;;;;;3.30;3.00;;;;;;;;;;5093503;28;20485;-65
2022/11/12 02:27:01;;;;;;;6.90;3.43;;;;;;;;;;5093269;28;20188;-64
2022/11/12 02:29:27;;;;;;;5.33;3.53;;;;;;;;;;5093178;28;20446;-64
2022/11/12 02:31:55;;;;;;;3.77;3.47;;;;;;;;;;5093131;28;20791;-64
2022/11/12 02:34:21;;;;;;;7.72;3.55;;;;;;;;;;5093236;28;20457;-64
2022/11/12 02:36:48;;;;;;;5.07;4.03;;;;;;;;;;5092992;28;20278;-64
2022/11/12 02:39:17;;;;;;;6.60;3.63;;;;;;;;;;5093257;28;20207;-65
2022/11/12 02:41:44;;;;;;;4.35;3.55;;;;;;;;;;5093126;28;20203;-64
2022/11/12 02:44:11;;;;;;;4.18;3.80;;;;;;;;;;5093037;28;20223;-64
2022/11/12 02:46:38;;;;;;;4.18;3.78;;;;;;;;;;5092843;28;20188;-65
2022/11/12 02:49:05;;;;;;;6.13;3.70;;;;;;;;;;5092899;28;20650;-64
2022/11/12 02:51:34;;;;;;;4.65;3.47;;;;;;;;;;5093125;28;20282;-64
2022/11/12 02:54:00;;;;;;;6.65;3.75;;;;;;;;;;5093061;28;20188;-64
2022/11/12 02:56:29;;;;;;;3.87;3.50;;;;;;;;;;5092911;28;20287;-64
2022/11/12 02:58:55;;;;;;;4.30;3.63;;;;;;;;;;5092637;28;20958;-64
2022/11/12 03:01:25;;;;;;;4.32;3.92;;;;;;;;;;5092743;28;20273;-64
2022/11/12 03:03:52;;;;;;;3.30;3.00;;;;;;;;;;5092708;28;20286;-64
2022/11/12 03:06:19;;;;;;;3.80;3.20;;;;;;;;;;5092845;28;20222;-64
2022/11/12 03:08:45;;;;;;;4.63;4.10;;;;;;;;;;5092828;28;20682;-64
2022/11/12 03:11:14;;;;;;;3.92;3.58;;;;;;;;;;5092689;28;20287;-64
2022/11/12 03:13:42;;;;;;;4.10;3.40;;;;;;;;;;5092607;28;20274;-64
2022/11/12 03:16:11;;;;;;;5.03;3.07;;;;;;;;;;5092623;28;20816;-64
2022/11/12 03:18:38;;;;;;;3.20;3.00;;;;;;;;;;5092875;28;20455;-64
2022/11/12 03:21:05;;;;;;;3.22;3.03;;;;;;;;;;5095901;28;20579;-65
2022/11/12 03:23:32;;;;;;;3.60;3.30;;;;;;;;;;5097055;28;20303;-64
2022/11/12 03:25:59;;;;;;;3.60;3.30;;;;;;;;;;5096601;28;20195;-64
2022/11/12 03:28:26;;;;;;;3.90;3.22;;;;;;;;;;5096788;28;20185;-64
2022/11/12 03:30:57;;;;;;;4.15;3.25;;;;;;;;;;5096408;28;20317;-64
2022/11/12 03:33:24;;;;;;;3.05;2.75;;;;;;;;;;5096546;28;20192;-64
2022/11/12 03:35:51;;;;;;;3.50;3.20;;;;;;;;;;5096653;28;20741;-64
2022/11/12 03:38:17;;;;;;;4.80;3.05;;;;;;;;;;5096394;28;20573;-64
2022/11/12 03:40:44;;;;;;;4.57;3.20;;;;;;;;;;5096237;28;20621;-64
2022/11/12 03:43:11;;;;;;;4.65;3.78;;;;;;;;;;5096113;28;20529;-64
2022/11/12 03:45:38;;;;;;;4.93;3.47;;;;;;;;;;5096038;28;20191;-65
2022/11/12 03:48:07;;;;;;;5.63;3.65;;;;;;;;;;5095982;28;20314;-64
2022/11/12 03:50:33;;;;;;;4.30;3.20;;;;;;;;;;5096378;28;20200;-64
2022/11/12 03:53:00;;;;;;;4.13;3.60;;;;;;;;;;5096109;28;20283;-64
2022/11/12 03:55:29;;;;;;;4.50;2.90;;;;;;;;;;5096367;28;20195;-64
2022/11/12 03:57:56;;;;;;;3.88;3.40;;;;;;;;;;5095860;28;20449;-64
2022/11/12 04:00:26;;;;;;;6.03;3.25;;;;;;;;;;5096094;28;20226;-64
2022/11/12 04:02:53;;;;;;;3.60;3.30;;;;;;;;;;5096104;28;20282;-64
2022/11/12 04:10:52;;;;;;;5.07;4.47;;;;;;;;;;5095742;28;20212;-64
2022/11/12 04:13:28;;;;;;;4.70;4.03;;;;;;;;;;5095747;28;20395;-64
2022/11/12 04:27:02;;;;;;;6.18;3.72;;;;;;;;;;5095730;28;20656;-63
2022/11/12 04:32:14;;;;;;;7.97;4.20;;;;;;;;;;5095526;28;20193;-64
2022/11/12 04:34:41;;;;;;;4.97;4.47;;;;;;;;;;5095369;28;20195;-64
2022/11/12 04:37:09;;;;;;;4.45;3.90;;;;;;;;;;5095250;28;20642;-64
2022/11/12 04:39:38;;;;;;;3.72;3.40;;;;;;;;;;5095286;28;20661;-64
2022/11/12 04:45:02;;;;;;;6.00;3.97;;;;;;;;;;5095119;28;20205;-64
2022/11/12 04:47:32;;;;;;;3.60;3.28;;;;;;;;;;5094903;28;20219;-64
2022/11/12 04:49:59;;;;;;;4.00;3.60;;;;;;;;;;5095164;28;20201;-63
2022/11/12 04:52:27;;;;;;;5.15;4.10;;;;;;;;;;5094918;28;20246;-64
2022/11/12 04:54:54;;;;;;;3.97;3.60;;;;;;;;;;5095302;28;20190;-64
2022/11/12 04:57:21;;;;;;;4.03;3.45;;;;;;;;;;5094920;28;20278;-63
2022/11/12 04:59:48;;;;;;;4.82;3.53;;;;;;;;;;5094701;28;20197;-64
2022/11/12 05:02:15;;;;;;;3.58;3.30;;;;;;;;;;5095155;28;20191;-63
2022/11/12 05:04:43;;;;;;;3.55;3.25;;;;;;;;;;5095110;28;20534;-64
2022/11/12 05:07:10;;;;;;;6.88;3.63;;;;;;;;;;5095418;28;20229;-64
2022/11/12 05:09:39;;;;;;;5.95;3.50;;;;;;;;;;5095041;28;20202;-64
2022/11/12 05:12:06;;;;;;;4.65;3.55;;;;;;;;;;5095142;28;20194;-64
2022/11/12 05:14:35;;;;;;;4.85;3.67;;;;;;;;;;5094980;28;20198;-64
2022/11/12 05:17:02;;;;;;;3.75;3.45;;;;;;;;;;5094899;28;20190;-64
2022/11/12 05:19:33;;;;;;;6.18;4.05;;;;;;;;;;5095098;28;20201;-64
2022/11/12 05:22:06;;;;;;;4.20;3.25;;;;;;;;;;5094976;28;20674;-64
2022/11/12 05:24:36;;;;;;;3.60;3.30;;;;;;;;;;5095134;28;20199;-64
2022/11/12 05:27:05;;;;;;;11.40;3.78;;;;;;;;;;5094683;28;20191;-64
2022/11/12 05:29:32;;;;;;;3.55;3.25;;;;;;;;;;5094779;28;20204;-64
2022/11/12 05:32:00;;;;;;;4.32;4.03;;;;;;;;;;5094755;28;20194;-64
2022/11/12 05:34:27;;;;;;;3.43;3.23;;;;;;;;;;5094781;28;20244;-64
2022/11/12 05:36:54;;;;;;;3.85;3.55;;;;;;;;;;5094661;28;20449;-64
2022/11/12 05:39:21;;;;;;;6.07;3.80;;;;;;;;;;5094739;28;20691;-64
2022/11/12 05:41:48;;;;;;;3.15;2.88;;;;;;;;;;5094342;28;20301;-63
2022/11/12 05:44:17;;;;;;;3.65;3.35;;;;;;;;;;5093294;28;20198;-64
2022/11/12 05:46:43;;;;;;;4.93;3.05;;;;;;;;;;5094148;28;20191;-65
2022/11/12 05:49:11;;;;;;;6.50;3.15;;;;;;;;;;5094634;28;20221;-64
2022/11/12 05:51:38;;;;;;;4.40;3.60;;;;;;;;;;5094312;28;20245;-64
2022/11/12 05:54:05;;;;;;;4.77;3.20;;;;;;;;;;5094224;28;20192;-65
2022/11/12 05:56:32;;;;;;;4.57;2.70;;;;;;;;;;5094294;28;20461;-65
2022/11/12 05:58:59;;;;;;;3.13;2.92;;;;;;;;;;5094551;28;20187;-65
2022/11/12 06:01:28;;;;;;;3.50;3.20;;;;;;;;;;5093930;28;20582;-66
2022/11/12 06:03:56;;;;;;;4.15;3.30;;;;;;;;;;5094110;28;20198;-65
2022/11/12 06:06:23;;;;;;;3.58;3.28;;;;;;;;;;5094038;28;20286;-65
2022/11/12 06:08:50;;;;;;;4.95;3.53;;;;;;;;;;5093942;28;20191;-64
2022/11/12 06:11:17;;;;;;;4.00;2.85;;;;;;;;;;5094104;28;20545;-64
2022/11/12 06:13:44;;;;;;;4.95;3.60;;;;;;;;;;5094035;28;20299;-64
2022/11/12 06:16:11;;;;;;;3.70;3.40;;;;;;;;;;5094118;28;20186;-64
2022/11/12 06:18:39;;;;;;;4.40;4.10;;;;;;;;;;5093846;28;20187;-64
2022/11/12 06:21:21;;;;;;;4.03;3.60;;;;;;;;;;5093703;28;20221;-64
2022/11/12 06:23:49;;;;;;;6.15;5.40;;;;;;;;;;5093645;28;20256;-64
2022/11/12 06:26:16;;;;;;;7.70;5.50;;;;;;;;;;5093910;28;20604;-64
2022/11/12 06:28:43;;;;;;;7.57;5.95;;;;;;;;;;5093672;28;20229;-64
2022/11/12 06:31:10;;;;;;;5.20;4.60;;;;;;;;;;5093651;28;20195;-65
2022/11/12 06:33:37;;;;;;;4.43;4.03;;;;;;;;;;5093512;28;20628;-64
2022/11/12 06:36:06;;;;;;;6.88;4.60;;;;;;;;;;5093542;28;20276;-64
2022/11/12 06:38:38;;;;;;;6.60;5.40;;;;;;;;;;5093679;28;20258;-64
2022/11/12 06:41:05;;;;;;;5.85;4.85;;;;;;;;;;5093467;28;20210;-64
2022/11/12 06:43:32;;;;;;;6.72;6.07;;;;;;;;;;5093612;28;20608;-65
2022/11/12 06:46:01;;;;;;;9.20;5.90;;;;;;;;;;5093489;28;20195;-65
2022/11/12 06:48:28;;;;;;;6.60;5.30;;;;;;;;;;5093258;28;20268;-64
2022/11/12 06:50:56;;;;;;;5.60;4.82;;;;;;;;;;5093338;28;20209;-65
2022/11/12 06:53:24;;;;;;;6.53;5.63;;;;;;;;;;5093619;28;20547;-65
2022/11/12 06:55:51;;;;;;;5.10;4.60;;;;;;;;;;5100261;28;20280;-65
2022/11/12 06:58:20;;;;;;;10.93;8.75;;;;;;;;;;5100293;28;20214;-64
2022/11/12 07:00:48;;;;;;;5.40;4.70;;;;;;;;;;5099905;28;20218;-65
2022/11/12 07:03:15;;;;;;;4.60;4.10;;;;;;;;;;5099819;28;20666;-65
2022/11/12 07:05:45;;;;;;;4.43;4.03;;;;;;;;;;5099635;28;20196;-65
2022/11/12 07:08:12;;;;;;;6.10;4.70;;;;;;;;;;5099934;28;20198;-65
2022/11/12 07:10:40;;;;;;;5.40;4.70;;;;;;;;;;5100353;28;20190;-65
2022/11/12 07:13:08;;;;;;;5.82;5.15;;;;;;;;;;5099954;28;20261;-65
2022/11/12 07:15:35;;;;;;;4.78;4.30;;;;;;;;;;5099989;28;20195;-65
2022/11/12 07:18:02;;;;;;;4.40;4.07;;;;;;;;;;5099892;28;20574;-65
2022/11/12 07:20:29;;;;;;;5.43;4.95;;;;;;;;;;5099648;28;20240;-65
2022/11/12 07:23:00;;;;;;;5.30;4.80;;;;;;;;;;5099846;28;20560;-66
2022/11/12 07:25:29;;;;;;;5.00;4.50;;;;;;;;;;5099980;28;20546;-65
2022/11/12 07:27:57;;;;;;;7.25;5.38;;;;;;;;;;5099830;28;20618;-65
2022/11/12 07:30:26;;;;;;;4.95;4.22;;;;;;;;;;5099746;28;20592;-65
2022/11/12 07:32:53;;;;;;;5.88;5.15;;;;;;;;;;5099988;28;20209;-65
2022/11/12 07:35:20;;;;;;;9.33;6.73;;;;;;;;;;5099936;28;20203;-65
2022/11/12 07:37:47;;;;;;;7.20;6.18;;;;;;;;;;5099801;28;20457;-66
2022/11/12 07:40:15;;;;;;;6.68;5.70;;;;;;;;;;5099680;28;20588;-65
2022/11/12 07:42:42;;;;;;;13.05;10.98;;;;;;;;;;5099781;28;20317;-65
2022/11/12 07:45:13;;;;;;;12.25;7.10;;;;;;;;;;5099897;28;20197;-65
2022/11/12 07:47:41;;;;;;;5.93;5.43;;;;;;;;;;5099709;28;20608;-65
2022/11/12 07:50:09;;;;;;;6.75;6.15;;;;;;;;;;5099821;28;20206;-65
2022/11/12 07:52:36;;;;;;;8.95;8.10;;;;;;;;;;5099667;28;20588;-65
2022/11/12 07:55:03;;;;;;;8.88;7.50;;;;;;;;;;5099578;28;20224;-65
2022/11/12 07:57:32;;;;;;;14.80;9.83;;;;;;;;;;5099296;28;20198;-65
2022/11/12 07:59:59;;;;;;;11.70;8.32;;;;;;;;;;5099708;28;20452;-65
2022/11/12 08:02:28;;;;;;;13.48;11.00;;;;;;;;;;5099469;28;20682;-65
2022/11/12 08:04:55;;;;;;;12.38;10.40;;;;;;;;;;5099469;28;20195;-65
2022/11/12 08:07:22;;;;;;;13.27;10.75;;;;;;;;;;5095524;28;20226;-65
2022/11/12 08:09:49;;;;;;;10.32;9.23;;;;;;;;;;5096064;28;20283;-65
2022/11/12 08:12:16;;;;;;;11.87;9.07;;;;;;;;;;5096054;28;20554;-66
2022/11/12 08:14:43;;;;;;;10.68;7.30;;;;;;;;;;5096470;28;20454;-66
2022/11/12 08:17:12;;;;;;;7.30;6.60;;;;;;;;;;5095781;28;20196;-65
2022/11/12 08:19:41;;;;;;;10.13;6.13;;;;;;;;;;5096098;28;20449;-65
2022/11/12 08:22:08;;;;;;;9.77;7.80;;;;;;;;;;5095947;28;20524;-65
2022/11/12 08:24:35;;;;;;;8.17;6.40;;;;;;;;;;5095937;28;20454;-64
2022/11/12 08:27:02;;;;;;;6.27;5.63;;;;;;;;;;5096117;28;20540;-64
2022/11/12 08:29:29;;;;;;;6.63;5.90;;;;;;;;;;5096111;28;20450;-64
2022/11/12 08:31:56;;;;;;;9.43;7.63;;;;;;;;;;5095751;28;20459;-64
2022/11/12 08:34:23;;;;;;;8.40;6.93;;;;;;;;;;5095787;28;20459;-64
2022/11/12 08:36:54;;;;;;;14.50;7.10;;;;;;;;;;5095975;28;20520;-64
2022/11/12 08:39:21;;;;;;;12.60;7.40;;;;;;;;;;5095760;28;20940;-64
2022/11/12 08:41:48;;;;;;;13.50;5.80;;;;;;;;;;5095416;28;20484;-64
2022/11/12 08:44:15;;;;;;;12.27;6.80;;;;;;;;;;5095663;28;20459;-64
2022/11/12 08:46:42;;;;;;;12.57;8.20;;;;;;;;;;5095426;28;20981;-64
2022/11/12 08:49:09;;;;;;;9.57;8.00;;;;;;;;;;5095483;28;20450;-64
2022/11/12 08:51:37;;;;;;;8.33;7.37;;;;;;;;;;5095450;28;20454;-64
2022/11/12 08:54:05;;;;;;;8.77;6.63;;;;;;;;;;5095552;28;20545;-65
2022/11/12 08:56:33;;;;;;;10.03;7.47;;;;;;;;;;5095619;28;20457;-65
2022/11/12 08:59:00;;;;;;;9.97;6.80;;;;;;;;;;5095334;28;20451;-65
2022/11/12 09:01:27;;;;;;;8.23;5.90;;;;;;;;;;5095262;28;20565;-64
2022/11/12 09:03:54;;;;;;;6.73;5.10;;;;;;;;;;5095287;28;20447;-64
2022/11/12 09:06:21;;;;;;;6.53;5.37;;;;;;;;;;5095244;28;20451;-64
2022/11/12 09:08:48;;;;;;;4.90;4.30;;;;;;;;;;5095286;28;20447;-64
2022/11/12 09:11:20;;;;;;;9.47;6.40;;;;;;;;;;5095288;28;20479;-63
2022/11/12 09:13:47;;;;;;;6.77;6.10;;;;;;;;;;5095225;28;20489;-63
2022/11/12 09:16:14;;;;;;;6.90;6.27;;;;;;;;;;5094928;28;20451;-64
2022/11/12 09:18:41;;;;;;;6.43;5.63;;;;;;;;;;5093399;28;20529;-64
2022/11/12 09:21:12;;;;;;;8.63;7.73;;;;;;;;;;5094935;28;20482;-64
2022/11/12 09:23:39;;;;;;;6.47;5.87;;;;;;;;;;5094836;28;20491;-64
2022/11/12 09:26:06;;;;;;;6.13;5.50;;;;;;;;;;5094725;28;20443;-64
2022/11/12 09:28:35;;;;;;;6.50;5.43;;;;;;;;;;5094589;28;20475;-64
2022/11/12 09:31:02;;;;;;;7.23;5.17;;;;;;;;;;5094553;28;20783;-64
2022/11/12 09:33:31;;;;;;;6.83;4.33;;;;;;;;;;5094544;28;20524;-64
2022/11/12 09:36:00;;;;;;;6.00;5.07;;;;;;;;;;5094755;28;20889;-64
2022/11/12 09:38:29;;;;;;;5.50;4.97;;;;;;;;;;5094682;28;20808;-64
2022/11/12 09:41:03;;;;;;;9.17;5.13;;;;;;;;;;5094551;28;20961;-64
2022/11/12 09:43:31;;;;;;;7.37;6.00;;;;;;;;;;5094310;28;20818;-64
2022/11/12 09:46:02;;;;;;;6.47;5.20;;;;;;;;;;5094309;28;20454;-64
2022/11/12 09:48:34;;;;;;;6.30;5.20;;;;;;;;;;5094226;28;20475;-64
2022/11/12 09:51:03;;;;;;;4.30;3.90;;;;;;;;;;5094347;28;20443;-64
2022/11/12 09:53:33;;;;;;;8.53;5.13;;;;;;;;;;5094282;28;20542;-64
2022/11/12 09:56:02;;;;;;;7.27;5.30;;;;;;;;;;5094294;28;20449;-64
2022/11/12 09:58:29;;;;;;;5.93;5.20;;;;;;;;;;5094015;28;20864;-64
2022/11/12 10:00:58;;;;;;;5.20;4.70;;;;;;;;;;5094027;28;20751;-64
2022/11/12 10:03:31;;;;;;;8.17;5.23;;;;;;;;;;5094132;28;20486;-64
2022/11/12 10:06:03;;;;;;;6.60;4.80;;;;;;;;;;5094163;28;20453;-64
2022/11/12 10:08:35;;;;;;;4.60;4.20;;;;;;;;;;5094001;28;20447;-64
2022/11/12 10:11:12;;;;;;;6.60;5.60;;;;;;;;;;5093933;28;20926;-64
2022/11/12 10:13:46;;;;;;;6.70;5.93;;;;;;;;;;5093904;28;20446;-64
2022/11/12 10:19:17;;;;;;;8.90;6.20;;;;;;;;;;5093867;28;20500;-65
2022/11/12 10:21:48;;;;;;;6.87;5.60;;;;;;;;;;5093757;28;20496;-65
2022/11/12 10:24:15;;;;;;;9.90;6.57;;;;;;;;;;5093964;28;20452;-64
2022/11/12 10:26:42;;;;;;;8.23;5.30;;;;;;;;;;5093525;28;20447;-65
2022/11/12 10:29:18;;;;;;;10.73;5.50;;;;;;;;;;5093079;28;20451;-65
2022/11/12 10:31:45;;;;;;;8.10;6.40;;;;;;;;;;5093150;28;20475;-65
2022/11/12 10:34:18;;;;;;;7.23;6.53;;;;;;;;;;5093302;28;20448;-65
2022/11/12 10:36:46;;;;;;;15.23;7.10;;;;;;;;;;5093148;28;20461;-65
2022/11/12 10:39:27;;;;;;;8.37;7.27;;;;;;;;;;5093222;28;21009;-65
2022/11/12 10:42:02;;;;;;;8.03;6.40;;;;;;;;;;5092853;28;20480;-65
2022/11/12 10:44:29;;;;;;;11.47;8.83;;;;;;;;;;5093140;28;20442;-65
2022/11/12 10:47:16;;;;;;;7.43;6.67;;;;;;;;;;5093099;28;20876;-65
2022/11/12 10:49:44;;;;;;;13.30;8.40;;;;;;;;;;5093019;28;20478;-65
2022/11/12 10:52:21;;;;;;;13.53;7.60;;;;;;;;;;5093117;28;20446;-65
2022/11/12 10:54:48;;;;;;;9.77;7.73;;;;;;;;;;5092892;28;20984;-65
2022/11/12 10:57:20;;;;;;;14.33;8.17;;;;;;;;;;5093066;28;20546;-65
2022/11/12 10:59:47;;;;;;;10.20;7.13;;;;;;;;;;5093032;28;20520;-65
2022/11/12 11:02:18;;;;;;;14.90;8.20;;;;;;;;;;5092888;28;20489;-65
2022/11/12 11:04:47;;;;;;;11.90;9.60;;;;;;;;;;5092803;28;20445;-65
2022/11/12 11:07:20;;;;;;;14.33;8.90;;;;;;;;;;5092643;28;20443;-65
2022/11/12 11:09:53;;;;;;;12.13;7.53;;;;;;;;;;5092888;28;20480;-65
2022/11/12 11:12:23;;;;;;;8.27;7.40;;;;;;;;;;5092712;28;20455;-65
2022/11/12 11:15:06;;;;;;;8.40;7.20;;;;;;;;;;5092895;28;20529;-65
2022/11/12 11:17:33;;;;;;;12.98;7.15;;;;;;;;;;5092769;28;20438;-65
2022/11/12 11:20:01;;;;;;;9.03;6.40;;;;;;;;;;5092767;28;20243;-65
2022/11/12 11:22:36;;;;;;;9.07;6.80;;;;;;;;;;5093066;28;20864;-64
2022/11/12 11:25:12;;;;;;;6.60;5.20;;;;;;;;;;5092762;28;20442;-65
2022/11/12 11:27:42;;;;;;;5.20;4.50;;;;;;;;;;5092687;28;20448;-64
2022/11/12 11:30:10;;;;;;;7.97;4.17;;;;;;;;;;5092439;28;20454;-65
2022/11/12 11:32:50;;;;;;;4.70;3.80;;;;;;;;;;5092714;28;20459;-65
2022/11/12 11:35:21;;;;;;;6.57;3.60;;;;;;;;;;5092694;28;20482;-65
2022/11/12 11:37:57;;;;;;;5.67;4.13;;;;;;;;;;5092505;28;20443;-65
2022/11/12 11:40:27;;;;;;;5.13;3.73;;;;;;;;;;5092392;28;20451;-65
2022/11/12 11:43:08;;;;;;;5.80;3.40;;;;;;;;;;5096413;28;20567;-64
2022/11/12 11:45:44;;;;;;;3.97;3.43;;;;;;;;;;5096341;28;20448;-64
2022/11/12 11:48:14;;;;;;;6.30;4.03;;;;;;;;;;5096056;28;20464;-64
2022/11/12 11:50:45;;;;;;;6.57;3.83;;;;;;;;;;5096062;28;20963;-64
2022/11/12 11:53:18;;;;;;;6.70;3.80;;;;;;;;;;5096092;28;20942;-64
2022/11/12 11:55:49;;;;;;;5.60;3.60;;;;;;;;;;5096002;28;20470;-63
2022/11/12 11:58:25;;;;;;;4.07;3.27;;;;;;;;;;5095904;28;20450;-63
2022/11/12 12:00:57;;;;;;;5.47;3.80;;;;;;;;;;5095941;28;20446;-64
2022/11/12 12:03:25;;;;;;;7.90;4.53;;;;;;;;;;5095684;28;20479;-64
2022/11/12 12:06:10;;;;;;;5.30;4.07;;;;;;;;;;5095969;28;20869;-64
2022/11/12 12:08:42;;;;;;;4.90;2.87;;;;;;;;;;5095974;28;20540;-63
2022/11/12 12:11:12;;;;;;;5.23;3.63;;;;;;;;;;5095758;28;20455;-66
2022/11/12 12:13:47;;;;;;;6.30;3.10;;;;;;;;;;5095870;28;20807;-65
2022/11/12 12:16:27;;;;;;;3.80;3.30;;;;;;;;;;5095774;28;20453;-65
2022/11/12 12:18:59;;;;;;;3.60;2.60;;;;;;;;;;5095752;28;20541;-64
2022/11/12 12:21:31;;;;;;;7.67;3.00;;;;;;;;;;5095658;28;20545;-64
2022/11/12 12:24:00;;;;;;;6.20;2.90;;;;;;;;;;5095326;28;20492;-64
2022/11/12 12:26:28;;;;;;;6.03;3.27;;;;;;;;;;5095648;28;20919;-65
2022/11/12 12:28:59;;;;;;;6.00;3.33;;;;;;;;;;5095517;28;20815;-64
2022/11/12 12:31:27;;;;;;;12.03;3.97;;;;;;;;;;5095288;28;20944;-64
2022/11/12 12:33:57;;;;;;;4.47;3.20;;;;;;;;;;5095358;28;20934;-64
2022/11/12 12:36:26;;;;;;;3.90;2.73;;;;;;;;;;5095193;28;20878;-65
2022/11/12 12:38:59;;;;;;;3.80;2.80;;;;;;;;;;5095024;28;20445;-65
2022/11/12 12:41:29;;;;;;;4.97;2.77;;;;;;;;;;5095294;28;20451;-64
2022/11/12 12:43:58;;;;;;;3.17;2.90;;;;;;;;;;5095129;28;20579;-65
2022/11/12 12:46:26;;;;;;;5.87;3.80;;;;;;;;;;5095092;28;20486;-64
2022/11/12 12:48:53;;;;;;;8.13;3.10;;;;;;;;;;5094958;28;20468;-64
2022/11/12 12:51:21;;;;;;;4.87;3.13;;;;;;;;;;5094819;28;20454;-64
2022/11/12 12:53:48;;;;;;;7.23;3.40;;;;;;;;;;5095000;28;20439;-64
2022/11/12 12:56:36;;;;;;;9.53;3.60;;;;;;;;;;5094904;28;20445;-64
2022/11/12 12:59:18;;;;;;;5.97;3.23;;;;;;;;;;5094571;28;20452;-64
2022/11/12 13:01:53;;;;;;;5.10;2.93;;;;;;;;;;5094729;28;20558;-64
2022/11/12 13:04:41;;;;;;;6.27;3.30;;;;;;;;;;5094663;28;20536;-65
2022/11/12 13:07:11;;;;;;;6.67;3.50;;;;;;;;;;5094617;28;20917;-65
2022/11/12 13:09:38;;;;;;;5.80;3.00;;;;;;;;;;5094662;28;20835;-65
2022/11/12 13:12:24;;;;;;;7.20;3.10;;;;;;;;;;5094475;28;20459;-64
2022/11/12 13:14:58;;;;;;;8.03;4.00;;;;;;;;;;5094813;28;20483;-65
2022/11/12 13:17:48;;;;;;;8.10;3.67;;;;;;;;;;5094534;28;20501;-65
2022/11/12 13:20:32;;;;;;;6.03;3.43;;;;;;;;;;5079337;28;20539;-64
2022/11/12 13:23:00;;;;;;;3.93;3.63;;;;;;;;;;5094301;28;20557;-64
2022/11/12 13:25:28;;;;;;;8.60;3.83;;;;;;;;;;5094415;28;20550;-65
2022/11/12 13:28:08;;;;;;;7.20;3.67;;;;;;;;;;5094275;28;20451;-64
2022/11/12 13:30:53;;;;;;;7.53;3.67;;;;;;;;;;5094198;28;20484;-64
2022/11/12 13:33:24;;;;;;;4.53;3.70;;;;;;;;;;5094261;28;20446;-64
2022/11/12 13:35:51;;;;;;;4.03;3.03;;;;;;;;;;5094244;28;20454;-64
2022/11/12 13:38:19;;;;;;;4.40;4.00;;;;;;;;;;5094118;28;20448;-64
2022/11/12 13:40:49;;;;;;;5.40;3.17;;;;;;;;;;5093906;28;20451;-64
2022/11/12 13:43:26;;;;;;;4.50;3.13;;;;;;;;;;5093663;28;21040;-65
2022/11/12 13:45:55;;;;;;;5.70;3.40;;;;;;;;;;5094151;28;20583;-64
2022/11/12 13:48:26;;;;;;;6.63;4.13;;;;;;;;;;5093885;28;20515;-64
2022/11/12 13:50:55;;;;;;;4.70;3.20;;;;;;;;;;5093912;28;20548;-64
2022/11/12 13:53:28;;;;;;;4.17;3.13;;;;;;;;;;5093698;28;20855;-64
2022/11/12 13:55:55;;;;;;;2.87;2.27;;;;;;;;;;5093653;28;20448;-64
2022/11/12 13:58:31;;;;;;;2.50;2.30;;;;;;;;;;5093814;28;20460;-65
2022/11/12 14:01:00;;;;;;;4.37;3.17;;;;;;;;;;5093821;28;20501;-64
2022/11/12 14:03:29;;;;;;;3.40;2.90;;;;;;;;;;5092847;28;20589;-65
2022/11/12 14:05:56;;;;;;;3.67;3.00;;;;;;;;;;5093538;28;20449;-65
2022/11/12 14:08:45;;;;;;;7.57;3.20;;;;;;;;;;5093409;28;20452;-65
2022/11/12 14:11:22;;;;;;;4.03;2.83;;;;;;;;;;5093647;28;20475;-64
2022/11/12 14:13:53;;;;;;;6.20;3.10;;;;;;;;;;5093588;28;20449;-64
2022/11/12 14:16:31;;;;;;;4.50;3.10;;;;;;;;;;5093500;28;20449;-64
2022/11/12 14:19:12;;;;;;;6.87;3.50;;;;;;;;;;5093631;28;20530;-65
2022/11/12 14:21:39;;;;;;;6.83;2.60;;;;;;;;;;5093393;28;20452;-65
2022/11/12 14:24:13;;;;;;;3.73;2.80;;;;;;;;;;5093268;28;20841;-65
2022/11/12 14:26:41;;;;;;;4.47;2.53;;;;;;;;;;5093257;28;20458;-64
2022/11/12 14:29:16;;;;;;;6.03;2.83;;;;;;;;;;5093074;28;20458;-65
2022/11/12 14:31:43;;;;;;;5.23;3.03;;;;;;;;;;5093330;28;20457;-65
2022/11/12 14:34:19;;;;;;;3.30;2.40;;;;;;;;;;5093280;28;21009;-64
2022/11/12 14:36:46;;;;;;;2.60;2.20;;;;;;;;;;5093131;28;20528;-64
2022/11/12 14:39:15;;;;;;;2.97;2.77;;;;;;;;;;5093114;28;20540;-65
2022/11/12 14:41:44;;;;;;;9.10;3.00;;;;;;;;;;5092804;28;20538;-65
2022/11/12 14:44:16;;;;;;;3.73;2.90;;;;;;;;;;5092946;28;21089;-65
2022/11/12 14:46:45;;;;;;;4.83;2.83;;;;;;;;;;5092812;28;20453;-65
2022/11/12 14:49:21;;;;;;;3.40;3.10;;;;;;;;;;5092942;28;21032;-64
2022/11/12 14:51:49;;;;;;;3.03;2.50;;;;;;;;;;5093125;28;20531;-64
2022/11/12 14:54:24;;;;;;;4.00;3.13;;;;;;;;;;5092698;28;20955;-64
2022/11/12 14:56:50;;;;;;;5.23;3.63;;;;;;;;;;5093044;28;20453;-64
2022/11/12 14:59:17;;;;;;;9.83;3.60;;;;;;;;;;5092937;28;20802;-64
2022/11/12 15:01:59;;;;;;;8.43;2.63;;;;;;;;;;5092811;28;20449;-64
2022/11/12 15:04:26;;;;;;;3.80;2.90;;;;;;;;;;5092434;28;20475;-64
2022/11/12 15:06:54;;;;;;;4.67;2.90;;;;;;;;;;5092925;28;20454;-64
2022/11/12 15:09:33;;;;;;;3.93;3.60;;;;;;;;;;5092845;28;20807;-64
2022/11/12 15:12:02;;;;;;;5.73;3.80;;;;;;;;;;5092848;28;20448;-64
2022/11/12 15:14:29;;;;;;;4.20;3.60;;;;;;;;;;5092672;28;20615;-64
2022/11/12 15:16:56;;;;;;;3.40;2.97;;;;;;;;;;5096700;28;20447;-65
2022/11/12 15:19:24;;;;;;;4.30;3.53;;;;;;;;;;5096764;28;21049;-64